Time;durP1;ratioP1;P1;durP2;ratioP2;P2;SDS_P1;SDS_P2;PMS_P1;PMS_P2;Temp;Humidity;BMP_temperature;BMP_pressure;BME280_temperature;BME280_humidity;BME280_pressure;Samples;Min_cycle;Max_cycle;Signal;HPM_P1;HPM_P2
2022/08/03 00:02:35;;;;;;;1.77;1.55;;;;;;;19.47;100.00;101169.84;21050229;28;20044;-75
2022/08/03 00:12:36;;;;;;;2.10;1.52;;;;;;;19.48;100.00;101167.97;21051983;28;20040;-75
2022/08/03 00:22:38;;;;;;;2.17;1.25;;;;;;;19.41;100.00;101151.47;21034254;28;20561;-76
2022/08/03 00:32:40;;;;;;;2.08;1.40;;;;;;;19.47;100.00;101153.63;21050759;28;20059;-75
2022/08/03 00:42:52;;;;;;;1.90;1.50;;;;;;;18.92;100.00;101065.03;21046430;28;20047;-75
2022/08/03 00:52:56;;;;;;;2.55;1.52;;;;;;;19.33;100.00;101127.88;21051323;28;20097;-76
2022/08/03 01:02:57;;;;;;;1.88;1.23;;;;;;;19.46;100.00;101149.22;21052154;28;20097;-75
2022/08/03 01:13:09;;;;;;;2.35;1.20;;;;;;;19.45;100.00;101139.41;21031947;28;20134;-75
2022/08/03 01:23:52;;;;;;;1.70;1.40;;;;;;;19.45;100.00;101134.03;21030461;28;20556;-76
2022/08/03 01:34:00;;;;;;;1.38;1.20;;;;;;;19.44;100.00;101132.28;21049081;28;20072;-75
2022/08/03 01:44:06;;;;;;;2.83;1.30;;;;;;;19.44;100.00;101132.28;21040967;28;20548;-75
2022/08/03 01:54:28;;;;;;;2.28;1.30;;;;;;;19.36;100.00;101114.09;21042344;28;20127;-76
2022/08/03 02:04:30;;;;;;;2.58;1.40;;;;;;;19.22;100.00;101084.81;21039626;28;20082;-76
2022/08/03 02:14:32;;;;;;;2.55;1.20;;;;;;;19.44;100.00;101120.66;21025206;28;20139;-76
2022/08/03 02:24:34;;;;;;;1.90;1.27;;;;;;;18.88;100.00;101023.97;20997934;28;20099;-76
2022/08/03 02:34:36;;;;;;;2.28;1.38;;;;;;;19.41;100.00;101105.56;20909026;28;20064;-74
2022/08/03 02:44:40;;;;;;;1.42;1.20;;;;;;;19.36;100.00;101094.34;20904784;28;20178;-75
2022/08/03 02:54:43;;;;;;;1.42;1.10;;;;;;;19.41;100.00;101098.34;20902744;28;20055;-75
2022/08/03 03:04:45;;;;;;;1.85;1.27;;;;;;;19.40;100.00;101093.94;20955959;28;20072;-75
2022/08/03 03:15:07;;;;;;;2.40;1.40;;;;;;;19.40;100.00;101091.22;20958072;28;20040;-75
2022/08/03 03:25:09;;;;;;;1.83;0.98;;;;;;;19.40;100.00;101099.34;20956571;28;20044;-75
2022/08/03 03:35:12;;;;;;;1.98;1.50;;;;;;;19.39;100.00;101094.06;20983779;28;20055;-75
2022/08/03 03:45:14;;;;;;;2.03;1.50;;;;;;;19.12;100.00;101047.03;20964537;28;20412;-75
2022/08/03 03:55:17;;;;;;;1.17;1.02;;;;;;;19.39;100.00;101094.06;20968466;28;20062;-75
2022/08/03 04:15:46;;;;;;;2.40;1.10;;;;;;;19.39;100.00;101088.66;21025278;28;20462;-75
2022/08/03 04:25:50;;;;;;;1.48;1.17;;;;;;;19.37;100.00;101082.56;21050000;28;20047;-75
2022/08/03 04:35:54;;;;;;;2.83;1.40;;;;;;;19.37;100.00;101098.75;21051366;28;20048;-75
2022/08/03 04:46:04;;;;;;;1.13;0.90;;;;;;;19.37;100.00;101098.75;21052150;28;20063;-75
2022/08/03 04:56:06;;;;;;;1.60;1.02;;;;;;;19.33;100.00;101103.59;21046559;28;20492;-76
2022/08/03 05:06:08;;;;;;;1.73;1.10;;;;;;;19.38;100.00;101113.94;21040138;28;20052;-76
2022/08/03 05:16:12;;;;;;;1.33;0.98;;;;;;;19.37;100.00;101121.22;21025496;28;20066;-75
2022/08/03 05:26:14;;;;;;;1.27;1.17;;;;;;;18.99;100.00;101053.53;21047744;28;20083;-75
2022/08/03 05:36:16;;;;;;;1.67;1.10;;;;;;;19.38;100.00;101116.66;20993783;28;20040;-76
2022/08/03 05:46:17;;;;;;;1.50;0.98;;;;;;;19.38;100.00;101127.44;20945841;28;20059;-76
2022/08/03 05:56:24;;;;;;;1.92;1.10;;;;;;;19.39;100.00;101129.16;20936823;28;20504;-76
2022/08/03 06:06:25;;;;;;;1.20;1.00;;;;;;;19.21;100.00;101093.91;20925562;28;20044;-75
2022/08/03 06:16:32;;;;;;;1.80;1.15;;;;;;;19.38;100.00;101122.06;20942099;28;20052;-75
2022/08/03 06:26:34;;;;;;;2.10;1.33;;;;;;;19.38;100.00;101122.06;20930403;28;20064;-75
2022/08/03 06:36:36;;;;;;;1.08;0.90;;;;;;;19.39;100.00;101121.06;20935721;28;20049;-75
2022/08/03 06:46:38;;;;;;;2.15;1.10;;;;;;;19.28;100.00;101119.38;20927161;28;20052;-74
2022/08/03 06:56:39;;;;;;;1.80;1.10;;;;;;;19.39;100.00;101146.22;20929926;28;20432;-75
2022/08/03 07:06:41;;;;;;;2.33;1.20;;;;;;;19.40;100.00;101152.47;20932273;28;20449;-75
2022/08/03 07:16:42;;;;;;;2.17;1.10;;;;;;;19.42;100.00;101150.47;21019493;28;20048;-75
2022/08/03 07:26:44;;;;;;;2.13;1.20;;;;;;;19.35;100.00;101134.00;20936090;28;20142;-76
2022/08/03 07:36:48;;;;;;;3.77;1.57;;;;;;;19.40;100.00;101138.97;20959420;28;20072;-75
2022/08/03 07:46:50;;;;;;;2.35;1.08;;;;;;;19.49;100.00;101148.06;20939984;28;20045;-75
2022/08/03 07:56:52;;;;;;;1.75;1.20;;;;;;;19.48;100.00;101163.44;20964041;28;20389;-75
2022/08/03 08:06:53;;;;;;;2.40;1.13;;;;;;;19.47;100.00;101150.94;20936705;28;20072;-76
2022/08/03 08:16:55;;;;;;;3.05;1.60;;;;;;;19.57;100.00;101167.13;20903323;28;20048;-75
2022/08/03 08:26:56;;;;;;;3.38;1.83;;;;;;;19.62;100.00;101158.59;20911452;28;20064;-74
2022/08/03 08:36:58;;;;;;;2.80;1.30;;;;;;;19.69;100.00;101152.50;20890770;28;20057;-75
2022/08/03 08:47:01;;;;;;;2.97;1.20;;;;;;;19.77;100.00;101170.69;20905433;28;20044;-75
2022/08/03 08:57:03;;;;;;;2.13;1.40;;;;;;;19.81;100.00;101161.28;20908197;28;20129;-75
2022/08/03 09:07:25;;;;;;;3.00;1.20;;;;;;;19.83;100.00;101167.41;20909776;28;20062;-75
2022/08/03 09:17:39;;;;;;;1.55;1.02;;;;;;;19.61;100.00;101121.78;20897033;28;20103;-75
2022/08/03 09:27:45;;;;;;;2.30;1.20;;;;;;;19.83;100.00;101170.09;20902554;28;20045;-75
2022/08/03 09:38:07;;;;;;;2.28;1.38;;;;;;;19.55;100.00;101125.91;20903010;28;20040;-75
2022/08/03 09:48:23;;;;;;;2.03;1.33;;;;;;;19.74;100.00;101160.16;20901770;28;20049;-75
2022/08/03 09:58:28;;;;;;;3.00;1.38;;;;;;;19.78;100.00;101169.69;20896985;28;20080;-75
2022/08/03 10:08:31;;;;;;;3.15;1.20;;;;;;;19.77;100.00;101176.09;20878373;28;20056;-75
2022/08/03 10:18:32;;;;;;;3.15;1.30;;;;;;;19.75;100.00;101163.72;20910211;28;20101;-74
2022/08/03 10:28:40;;;;;;;6.80;1.67;;;;;;;19.58;100.00;101130.19;20894623;28;20051;-75
2022/08/03 10:38:51;;;;;;;3.17;1.58;;;;;;;19.71;100.00;101155.03;20904320;28;20052;-75
2022/08/03 10:48:53;;;;;;;3.13;1.10;;;;;;;19.71;100.00;101155.03;20913881;28;20045;-75
2022/08/03 10:58:54;;;;;;;1.90;1.42;;;;;;;19.71;100.00;101146.94;20911338;28;20055;-75
2022/08/03 11:09:15;;;;;;;4.05;1.55;;;;;;;19.72;100.00;101140.53;20905556;28;20413;-76
2022/08/03 11:19:22;;;;;;;4.45;1.50;;;;;;;19.77;100.00;101138.25;20900323;28;20051;-76
2022/08/03 11:29:29;;;;;;;3.63;1.40;;;;;;;19.60;100.00;101087.69;20917554;28;20044;-77
2022/08/03 11:39:43;;;;;;;5.53;2.35;;;;;;;19.76;100.00;101101.44;20908479;28;20052;-77
2022/08/03 11:49:46;;;;;;;3.07;1.73;;;;;;;20.05;100.00;101132.16;20925900;28;20045;-76
2022/08/03 11:59:47;;;;;;;4.15;1.77;;;;;;;19.74;100.00;101067.47;20916692;28;20382;-76
2022/08/03 12:10:10;;;;;;;4.15;1.80;;;;;;;20.12;100.00;101114.38;20926110;28;20037;-77
2022/08/03 12:20:20;;;;;;;3.63;1.55;;;;;;;20.18;100.00;101123.72;20922585;28;20056;-77
2022/08/03 12:30:37;;;;;;;4.13;1.55;;;;;;;20.18;100.00;101107.50;20889255;28;20505;-75
2022/08/03 12:40:38;;;;;;;4.65;2.00;;;;;;;20.23;100.00;101116.03;20921094;28;20058;-76
2022/08/03 12:50:40;;;;;;;3.75;2.05;;;;;;;20.22;100.00;101119.75;20930711;28;20052;-78
2022/08/03 13:00:54;;;;;;;2.72;1.83;;;;;;;20.10;100.00;101105.53;20918335;28;20408;-77
2022/08/03 13:10:55;;;;;;;7.13;2.75;;;;;;;20.22;100.00;101114.34;20910959;28;20052;-77
2022/08/03 13:20:57;;;;;;;3.58;2.10;;;;;;;20.21;100.00;101112.63;20898832;28;20150;-78
2022/08/03 13:30:59;;;;;;;3.92;2.20;;;;;;;20.22;100.00;101125.16;20882096;28;20114;-79
2022/08/03 13:41:01;;;;;;;5.40;3.40;;;;;;;20.25;100.00;101114.91;20895582;28;20128;-77
2022/08/03 13:51:05;;;;;;;4.22;2.55;;;;;;;20.25;100.00;101104.09;20897828;28;20036;-78
2022/08/03 14:01:23;;;;;;;5.43;2.08;;;;;;;20.33;100.00;101116.88;20896914;28;20033;-77
2022/08/03 14:11:45;;;;;;;5.60;2.20;;;;;;;20.43;100.00;101111.41;20881876;28;20053;-78
2022/08/03 14:22:06;;;;;;;3.45;1.70;;;;;;;20.47;100.00;101118.22;20892912;28;20053;-77
2022/08/03 14:32:08;;;;;;;2.55;1.40;;;;;;;20.48;100.00;101128.03;20884989;28;20718;-77
2022/08/03 14:42:14;;;;;;;1.75;1.45;;;;;;;20.48;100.00;101110.97;20885075;28;20152;-76
2022/08/03 14:52:15;;;;;;;2.08;1.35;;;;;;;20.48;100.00;101119.09;20877400;28;20183;-77
2022/08/03 15:02:17;;;;;;;2.85;1.50;;;;;;;20.40;100.00;101096.34;20887642;28;20068;-78
2022/08/03 15:12:25;;;;;;;3.95;1.75;;;;;;;20.42;100.00;101099.75;20892580;28;20056;-77
2022/08/03 15:22:26;;;;;;;2.47;1.60;;;;;;;20.40;100.00;101090.09;20896026;28;20706;-78
2022/08/03 15:32:35;;;;;;;2.92;1.40;;;;;;;20.37;100.00;101091.25;20872608;28;20052;-75
2022/08/03 15:42:37;;;;;;;1.95;1.25;;;;;;;20.35;100.00;101093.25;20889852;28;20425;-76
2022/08/03 15:52:38;;;;;;;2.42;1.48;;;;;;;20.31;100.00;101094.50;20882129;28;20063;-76
2022/08/03 16:02:40;;;;;;;1.42;1.10;;;;;;;20.21;100.00;101074.78;20892095;28;20072;-76
2022/08/03 16:12:42;;;;;;;1.98;1.50;;;;;;;20.31;100.00;101085.56;20895659;28;20072;-75
2022/08/03 16:22:45;;;;;;;3.25;2.00;;;;;;;20.10;100.00;101068.56;20883930;28;20062;-76
2022/08/03 16:32:47;;;;;;;2.65;1.90;;;;;;;20.28;100.00;101102.94;20897087;28;20491;-77
2022/08/03 16:42:48;;;;;;;3.28;2.38;;;;;;;20.26;100.00;101104.94;20884330;28;20048;-76
2022/08/03 16:52:50;;;;;;;4.28;2.60;;;;;;;20.13;100.00;101083.66;20871529;28;20493;-77
2022/08/03 17:02:54;;;;;;;6.70;3.20;;;;;;;20.00;100.00;101073.16;20878818;28;20049;-77
2022/08/03 17:12:56;;;;;;;7.22;3.08;;;;;;;20.21;100.00;101105.38;20871711;28;20053;-77
2022/08/03 17:23:12;;;;;;;6.70;3.30;;;;;;;20.19;100.00;101109.22;20876634;28;20193;-77
2022/08/03 17:33:36;;;;;;;5.10;3.33;;;;;;;20.17;100.00;101111.22;20903604;28;20052;-76
2022/08/03 17:43:40;;;;;;;6.40;4.43;;;;;;;20.13;100.00;101122.31;20951310;28;20162;-77
2022/08/03 17:54:29;;;;;;;7.63;4.50;;;;;;;20.12;100.00;101142.25;20907666;28;20668;-76
2022/08/03 18:04:38;;;;;;;8.27;4.80;;;;;;;20.09;100.00;101139.84;20880894;28;20182;-74
2022/08/03 18:14:46;;;;;;;7.53;4.00;;;;;;;20.05;100.00;101137.56;20912684;28;20045;-74
2022/08/03 18:25:02;;;;;;;6.88;4.85;;;;;;;20.04;100.00;101139.41;20901269;28;20163;-74
2022/08/03 18:35:08;;;;;;;8.13;4.95;;;;;;;20.04;100.00;101142.13;20892368;28;20490;-74
2022/08/03 18:45:14;;;;;;;9.77;4.60;;;;;;;20.03;100.00;101143.13;20934721;28;20126;-75
2022/08/03 18:55:39;;;;;;;6.40;4.00;;;;;;;20.00;100.00;101133.44;21024732;28;20051;-74
2022/08/03 19:06:05;;;;;;;9.73;4.50;;;;;;;19.82;100.00;101114.38;21027538;28;20135;-78
2022/08/03 19:16:20;;;;;;;6.60;4.03;;;;;;;19.93;100.00;101131.47;21043021;28;20497;-75
2022/08/03 19:26:24;;;;;;;6.93;3.90;;;;;;;19.98;100.00;101140.00;21053545;28;20431;-74
2022/08/03 19:36:33;;;;;;;6.43;3.92;;;;;;;19.98;100.00;101142.69;21057803;28;20059;-75
2022/08/03 19:46:45;;;;;;;7.32;4.45;;;;;;;19.96;100.00;101150.09;21040600;28;20041;-74
2022/08/03 19:56:51;;;;;;;6.57;3.92;;;;;;;19.86;100.00;101137.41;21049603;28;20109;-74
2022/08/03 20:06:56;;;;;;;7.15;4.13;;;;;;;19.94;100.00;101144.81;21056265;28;20062;-74
2022/08/03 20:16:58;;;;;;;6.40;3.58;;;;;;;19.93;100.00;101143.13;21052654;28;20040;-75
2022/08/03 20:27:01;;;;;;;6.03;3.70;;;;;;;19.91;100.00;101147.81;21053202;28;20044;-75
2022/08/03 20:37:08;;;;;;;8.27;4.10;;;;;;;19.91;100.00;101141.59;20982574;28;20041;-75
2022/08/03 20:47:12;;;;;;;4.70;3.63;;;;;;;19.90;100.00;101143.41;20989553;28;20051;-75
2022/08/03 20:57:24;;;;;;;4.63;3.30;;;;;;;19.89;100.00;101136.28;21050131;28;20052;-74
2022/08/03 21:07:27;;;;;;;6.95;3.53;;;;;;;19.74;100.00;101110.69;21050203;28;20067;-75
2022/08/03 21:17:51;;;;;;;5.50;3.20;;;;;;;19.89;100.00;101124.63;21047860;28;20044;-75
2022/08/03 21:27:53;;;;;;;4.60;2.90;;;;;;;19.88;100.00;101117.50;21048716;28;20126;-75
2022/08/03 21:38:37;;;;;;;4.00;2.97;;;;;;;19.86;100.00;101110.38;21046497;28;20048;-75
2022/08/03 21:48:21;;;;;;;5.53;2.67;;;;;;;19.83;100.00;101094.47;21024154;28;20036;-75
2022/08/03 21:58:31;;;;;;;5.22;3.20;;;;;;;19.85;100.00;101091.63;21044896;28;20050;-75
2022/08/03 22:08:33;;;;;;;5.07;2.92;;;;;;;19.83;100.00;101091.75;21045073;28;20051;-75
2022/08/03 22:18:39;;;;;;;3.75;2.63;;;;;;;19.74;100.00;101078.28;21045427;28;20040;-75
2022/08/03 22:28:42;;;;;;;5.68;3.03;;;;;;;19.82;100.00;101083.81;21042847;28;20044;-75
2022/08/03 22:38:46;;;;;;;5.18;2.70;;;;;;;19.60;100.00;101039.06;21044607;28;20447;-74
2022/08/03 22:48:49;;;;;;;3.90;2.50;;;;;;;19.80;100.00;101075.00;21019755;28;20093;-75
2022/08/03 22:58:50;;;;;;;3.50;2.38;;;;;;;19.80;100.00;101078.53;21053105;28;20048;-75
2022/08/03 23:08:52;;;;;;;3.13;2.22;;;;;;;19.56;100.00;101039.38;21060134;28;20051;-75
2022/08/03 23:18:54;;;;;;;3.70;2.65;;;;;;;19.79;100.00;101079.53;21059254;28;20490;-74
2022/08/03 23:29:00;;;;;;;3.35;2.33;;;;;;;19.78;100.00;101080.53;21056917;28;20056;-75
2022/08/03 23:39:02;;;;;;;3.75;2.40;;;;;;;19.78;100.00;101077.84;21056507;28;20040;-75
2022/08/03 23:49:04;;;;;;;3.33;1.88;;;;;;;19.78;100.00;101074.31;21041524;28;20052;-75
2022/08/03 23:59:18;;;;;;;3.17;2.30;;;;;;;19.76;100.00;101069.03;21050723;28;20562;-74
